createdAt,value
2018-07-22T00:00:17.882Z,22.49
2018-07-22T00:02:46.764Z,22.48
2018-07-22T00:05:15.770Z,22.48
2018-07-22T00:07:44.681Z,22.45
2018-07-22T00:10:30.533Z,22.45
2018-07-22T00:13:00.384Z,22.46
2018-07-22T00:15:29.311Z,22.42
2018-07-22T00:17:58.216Z,22.35
2018-07-22T00:20:27.141Z,22.30
2018-07-22T00:22:56.057Z,22.24
2018-07-22T00:25:24.950Z,22.24
2018-07-22T00:27:53.917Z,22.15
2018-07-22T00:30:22.827Z,22.12
2018-07-22T00:32:51.759Z,22.07
2018-07-22T00:35:20.691Z,21.97
2018-07-22T00:37:49.609Z,21.98
2018-07-22T00:40:18.487Z,21.98
2018-07-22T00:42:47.411Z,21.82
2018-07-22T00:45:16.308Z,21.71
2018-07-22T00:47:45.221Z,21.76
2018-07-22T00:50:14.184Z,21.85
2018-07-22T00:52:43.105Z,21.84
2018-07-22T00:55:12.037Z,21.81
2018-07-22T00:57:40.976Z,21.91
2018-07-22T01:00:09.899Z,21.87
2018-07-22T01:02:38.780Z,21.70
2018-07-22T01:05:07.971Z,21.62
2018-07-22T01:07:36.933Z,21.73
2018-07-22T01:10:06.082Z,21.67
2018-07-22T01:12:35.056Z,21.72
2018-07-22T01:15:03.989Z,21.58
2018-07-22T01:17:32.919Z,21.63
2018-07-22T01:20:01.852Z,21.60
2018-07-22T01:22:30.736Z,21.56
2018-07-22T01:24:59.758Z,21.61
2018-07-22T01:27:28.669Z,21.63
2018-07-22T01:29:58.277Z,21.55
2018-07-22T01:32:27.204Z,21.57
2018-07-22T01:34:56.117Z,21.49
2018-07-22T01:37:25.044Z,21.54
2018-07-22T01:39:53.946Z,21.48
2018-07-22T01:42:22.992Z,21.39
2018-07-22T01:44:51.912Z,21.37
2018-07-22T01:47:20.873Z,21.36
2018-07-22T01:49:51.892Z,21.33
2018-07-22T01:52:20.786Z,21.33
2018-07-22T01:54:49.722Z,21.27
2018-07-22T01:57:18.664Z,21.15
2018-07-22T01:59:47.553Z,21.21
2018-07-22T02:02:16.797Z,21.32
2018-07-22T02:04:45.733Z,21.38
2018-07-22T02:07:14.639Z,21.24
2018-07-22T02:09:43.559Z,21.26
2018-07-22T02:12:12.474Z,21.27
2018-07-22T02:14:41.418Z,21.22
2018-07-22T02:17:10.343Z,21.26
2018-07-22T02:19:39.272Z,21.15
2018-07-22T02:22:08.155Z,21.13
2018-07-22T02:24:37.083Z,21.10
2018-07-22T02:27:06.007Z,21.18
2018-07-22T02:29:34.905Z,21.13
2018-07-22T02:32:03.861Z,21.12
2018-07-22T02:34:32.787Z,21.14
2018-07-22T02:37:01.700Z,21.03
2018-07-22T02:39:30.605Z,21.10
2018-07-22T02:41:59.521Z,21.10
2018-07-22T02:44:28.677Z,21.06
2018-07-22T02:46:57.885Z,21.00
2018-07-22T02:49:27.006Z,21.00
2018-07-22T02:51:56.319Z,21.06
2018-07-22T02:54:25.242Z,21.00
2018-07-22T02:56:54.239Z,21.00
2018-07-22T02:59:23.151Z,20.99
2018-07-22T03:01:52.040Z,21.00
2018-07-22T03:04:20.967Z,20.99
2018-07-22T03:06:49.916Z,20.89
2018-07-22T03:09:18.847Z,20.89
2018-07-22T03:11:47.768Z,20.86
2018-07-22T03:14:16.659Z,20.86
2018-07-22T03:16:45.641Z,20.91
2018-07-22T03:19:14.555Z,20.89
2018-07-22T03:21:43.466Z,20.85
2018-07-22T03:24:12.369Z,20.83
2018-07-22T03:26:41.324Z,20.73
2018-07-22T03:29:10.289Z,20.70
2018-07-22T03:31:39.232Z,20.68
2018-07-22T03:34:08.400Z,20.74
2018-07-22T03:36:37.276Z,20.68
2018-07-22T03:39:08.122Z,20.75
2018-07-22T03:41:37.108Z,20.69
2018-07-22T03:44:06.167Z,20.60
2018-07-22T03:46:35.301Z,20.61
2018-07-22T03:49:04.237Z,20.60
2018-07-22T03:51:33.143Z,20.57
2018-07-22T03:54:02.032Z,20.55
2018-07-22T03:56:30.949Z,20.56
2018-07-22T03:58:59.866Z,20.56
2018-07-22T04:01:28.779Z,20.48
2018-07-22T04:03:57.735Z,20.50
2018-07-22T04:06:26.617Z,20.42
2018-07-22T04:08:55.531Z,20.50
2018-07-22T04:11:24.423Z,20.45
2018-07-22T04:13:53.348Z,20.40
2018-07-22T04:16:22.261Z,20.38
2018-07-22T04:18:52.931Z,20.35
2018-07-22T04:21:23.365Z,20.19
2018-07-22T04:23:52.399Z,20.09
2018-07-22T04:26:22.127Z,20.20
2018-07-22T04:28:51.569Z,20.20
2018-07-22T04:31:20.966Z,20.20
2018-07-22T04:33:49.966Z,20.16
2018-07-22T04:36:18.888Z,20.18
2018-07-22T04:38:47.906Z,19.93
2018-07-22T04:41:16.817Z,19.86
2018-07-22T04:43:45.706Z,19.94
2018-07-22T04:46:14.639Z,20.04
2018-07-22T04:48:43.547Z,19.76
2018-07-22T04:51:12.477Z,19.81
2018-07-22T04:53:41.413Z,19.63
2018-07-22T04:56:10.322Z,19.84
2018-07-22T04:58:39.222Z,19.84
2018-07-22T05:01:08.137Z,19.94
2018-07-22T05:03:37.030Z,19.90
2018-07-22T05:06:05.955Z,19.83
2018-07-22T05:08:34.863Z,19.88
2018-07-22T05:11:03.776Z,19.94
2018-07-22T05:13:32.669Z,19.98
2018-07-22T05:16:01.577Z,20.01
2018-07-22T05:18:30.467Z,20.11
2018-07-22T05:20:59.374Z,20.10
2018-07-22T05:23:29.113Z,20.01
2018-07-22T05:25:58.034Z,20.02
2018-07-22T05:28:30.397Z,20.06
2018-07-22T05:30:59.415Z,20.06
2018-07-22T05:33:28.343Z,20.17
2018-07-22T05:35:57.340Z,20.06
2018-07-22T05:38:29.423Z,20.03
2018-07-22T05:40:58.298Z,19.89
2018-07-22T05:43:27.209Z,19.99
2018-07-22T05:45:56.142Z,20.06
2018-07-22T05:48:25.049Z,20.12
2018-07-22T05:50:53.984Z,20.17
2018-07-22T05:53:22.906Z,20.19
2018-07-22T05:55:51.852Z,20.10
2018-07-22T05:58:20.776Z,20.28
2018-07-22T06:00:49.711Z,20.40
2018-07-22T06:03:18.619Z,20.40
2018-07-22T06:05:47.836Z,20.37
2018-07-22T06:08:16.897Z,20.41
2018-07-22T06:10:48.967Z,20.49
2018-07-22T06:13:17.930Z,20.47
2018-07-22T06:15:46.841Z,20.57
2018-07-22T06:18:15.760Z,20.38
2018-07-22T06:20:44.672Z,20.35
2018-07-22T06:23:15.575Z,20.44
2018-07-22T06:25:44.540Z,20.57
2018-07-22T06:28:13.466Z,20.59
2018-07-22T06:30:42.461Z,20.72
2018-07-22T06:33:11.391Z,20.75
2018-07-22T06:35:40.330Z,20.83
2018-07-22T06:38:09.364Z,20.73
2018-07-22T06:40:38.226Z,20.80
2018-07-22T06:43:07.179Z,20.86
2018-07-22T06:45:36.151Z,20.87
2018-07-22T06:48:05.339Z,20.93
2018-07-22T06:50:34.279Z,20.91
2018-07-22T06:53:03.247Z,20.89
2018-07-22T06:55:32.170Z,21.00
2018-07-22T06:58:01.529Z,21.14
2018-07-22T07:00:30.585Z,21.06
2018-07-22T07:02:59.805Z,21.18
2018-07-22T07:05:29.043Z,21.31
2018-07-22T07:07:57.987Z,21.34
2018-07-22T07:10:26.923Z,21.36
2018-07-22T07:12:55.826Z,21.35
2018-07-22T07:15:24.808Z,21.40
2018-07-22T07:17:53.734Z,21.52
2018-07-22T07:20:23.640Z,21.62
2018-07-22T07:22:52.643Z,21.55
2018-07-22T07:25:21.569Z,21.64
2018-07-22T07:27:50.507Z,21.59
2018-07-22T07:30:19.419Z,21.58
2018-07-22T07:32:48.337Z,21.56
2018-07-22T07:35:17.260Z,21.62
2018-07-22T07:37:46.166Z,21.64
2018-07-22T07:40:15.094Z,21.60
2018-07-22T07:42:44.043Z,21.49
2018-07-22T07:45:12.996Z,21.53
2018-07-22T07:47:42.173Z,21.61
2018-07-22T07:50:11.137Z,21.83
2018-07-22T07:52:40.074Z,21.98
2018-07-22T07:55:08.973Z,22.09
2018-07-22T07:57:38.374Z,22.22
2018-07-22T08:00:07.507Z,22.15
2018-07-22T08:02:36.407Z,22.16
2018-07-22T08:05:05.532Z,22.17
2018-07-22T08:07:34.504Z,22.27
2018-07-22T08:10:05.342Z,22.31
2018-07-22T08:12:34.460Z,22.43
2018-07-22T08:15:03.522Z,22.40
2018-07-22T08:17:32.477Z,22.50
2018-07-22T08:20:01.649Z,22.59
2018-07-22T08:22:30.580Z,22.61
2018-07-22T08:24:59.517Z,22.61
2018-07-22T08:27:28.477Z,22.61
2018-07-22T08:29:57.415Z,22.63
2018-07-22T08:32:26.322Z,22.67
2018-07-22T08:34:55.277Z,22.79
2018-07-22T08:37:24.267Z,22.81
2018-07-22T08:39:53.181Z,22.82
2018-07-22T08:42:22.092Z,22.86
2018-07-22T08:44:51.061Z,22.87
2018-07-22T08:55:47.122Z,23.01
2018-07-22T09:00:53.655Z,23.13
2018-07-22T09:03:22.572Z,23.22
2018-07-22T09:05:51.554Z,23.27
2018-07-22T09:08:20.542Z,23.34
2018-07-22T09:10:49.397Z,23.36
2018-07-22T09:13:18.320Z,23.37
2018-07-22T09:15:47.248Z,23.41
2018-07-22T09:18:16.150Z,23.50
2018-07-22T09:20:45.050Z,23.53
2018-07-22T09:23:13.968Z,23.62
2018-07-22T09:25:46.263Z,23.75
2018-07-22T09:28:15.163Z,23.89
2018-07-22T09:30:44.097Z,23.88
2018-07-22T09:33:13.017Z,23.96
2018-07-22T09:35:42.177Z,24.06
2018-07-22T09:38:11.761Z,24.08
2018-07-22T09:40:41.035Z,24.07
2018-07-22T09:43:10.347Z,24.10
2018-07-22T09:45:39.308Z,24.17
2018-07-22T09:48:08.228Z,24.28
2018-07-22T09:50:37.201Z,24.24
2018-07-22T09:53:06.165Z,24.31
2018-07-22T09:55:35.046Z,24.53
2018-07-22T09:58:03.965Z,24.57
2018-07-22T10:00:38.094Z,24.51
2018-07-22T10:03:07.117Z,24.40
2018-07-22T10:05:36.587Z,24.46
2018-07-22T10:08:05.649Z,24.46
2018-07-22T10:10:34.535Z,24.61
2018-07-22T10:13:03.480Z,24.56
2018-07-22T10:15:32.509Z,24.58
2018-07-22T10:18:01.455Z,24.66
2018-07-22T10:20:30.375Z,24.75
2018-07-22T10:22:59.282Z,24.84
2018-07-22T10:25:28.179Z,24.94
2018-07-22T10:27:57.234Z,24.95
2018-07-22T10:30:26.176Z,24.97
2018-07-22T10:32:55.080Z,24.99
2018-07-22T10:35:24.070Z,24.92
2018-07-22T10:37:53.005Z,24.79
2018-07-22T10:40:21.905Z,24.95
2018-07-22T10:42:50.823Z,25.16
2018-07-22T10:45:19.733Z,25.01
2018-07-22T10:47:48.621Z,25.07
2018-07-22T10:50:17.598Z,25.11
2018-07-22T10:52:46.501Z,25.07
2018-07-22T10:55:15.431Z,25.31
2018-07-22T10:57:44.301Z,25.48
2018-07-22T11:00:13.261Z,25.60
2018-07-22T11:02:42.217Z,25.64
2018-07-22T11:05:11.121Z,25.70
2018-07-22T11:07:40.018Z,25.75
2018-07-22T11:10:08.928Z,25.69
2018-07-22T11:12:37.885Z,25.58
2018-07-22T11:15:07.421Z,25.59
2018-07-22T11:17:36.305Z,25.65
2018-07-22T11:20:05.370Z,25.70
2018-07-22T11:22:34.364Z,25.69
2018-07-22T11:25:03.341Z,25.72
2018-07-22T11:27:32.274Z,25.72
2018-07-22T11:30:01.251Z,25.88
2018-07-22T11:32:30.178Z,25.81
2018-07-22T11:34:59.049Z,25.87
2018-07-22T11:37:27.982Z,26.00
2018-07-22T11:39:56.959Z,25.98
2018-07-22T11:42:25.825Z,26.19
2018-07-22T11:44:54.740Z,26.16
2018-07-22T11:47:23.732Z,26.48
2018-07-22T11:49:52.640Z,26.58
2018-07-22T11:52:21.534Z,26.73
2018-07-22T11:54:50.690Z,26.87
2018-07-22T11:57:19.592Z,26.95
2018-07-22T11:59:48.505Z,27.02
2018-07-22T12:02:20.642Z,27.12
2018-07-22T12:04:49.549Z,27.12
2018-07-22T12:07:18.460Z,26.90
2018-07-22T12:09:47.339Z,26.59
2018-07-22T12:12:16.246Z,26.48
2018-07-22T12:14:45.127Z,26.84
2018-07-22T12:17:14.076Z,27.25
2018-07-22T12:19:42.967Z,27.38
2018-07-22T12:22:11.896Z,27.18
2018-07-22T12:24:40.803Z,27.20
2018-07-22T12:27:09.745Z,27.49
2018-07-22T12:29:39.651Z,27.37
2018-07-22T12:32:08.578Z,27.30
2018-07-22T12:34:37.513Z,27.31
2018-07-22T12:37:06.551Z,27.35
2018-07-22T12:39:41.050Z,27.35
2018-07-22T12:42:10.269Z,27.12
2018-07-22T12:44:39.170Z,27.27
2018-07-22T12:47:08.125Z,27.41
2018-07-22T12:49:37.040Z,27.42
2018-07-22T12:52:06.071Z,27.57
2018-07-22T12:54:34.950Z,27.49
2018-07-22T12:57:04.029Z,27.56
2018-07-22T12:59:32.914Z,27.59
2018-07-22T13:02:01.798Z,27.61
2018-07-22T13:04:30.775Z,27.77
2018-07-22T13:06:59.702Z,27.85
2018-07-22T13:09:28.641Z,27.86
2018-07-22T13:11:57.544Z,27.86
2018-07-22T13:14:26.514Z,28.00
2018-07-22T13:16:55.419Z,28.17
2018-07-22T13:19:24.544Z,28.16
2018-07-22T13:21:53.543Z,28.19
2018-07-22T13:24:22.449Z,28.53
2018-07-22T13:26:51.421Z,28.67
2018-07-22T13:29:20.404Z,28.57
2018-07-22T13:31:49.338Z,28.20
2018-07-22T13:34:18.293Z,28.04
2018-07-22T13:36:47.265Z,27.85
2018-07-22T13:39:16.190Z,27.73
2018-07-22T13:41:45.192Z,27.61
2018-07-22T13:44:16.228Z,27.43
2018-07-22T13:46:45.149Z,27.34
2018-07-22T13:49:14.168Z,27.24
2018-07-22T13:51:43.132Z,27.19
2018-07-22T13:54:12.120Z,27.14
2018-07-22T13:56:41.025Z,27.04
2018-07-22T13:59:09.935Z,26.98
2018-07-22T14:01:38.863Z,26.92
2018-07-22T14:04:07.901Z,26.89
2018-07-22T14:06:37.061Z,26.84
2018-07-22T14:09:08.589Z,26.83
2018-07-22T14:11:37.711Z,26.79
2018-07-22T14:14:06.645Z,26.76
2018-07-22T14:16:35.794Z,26.73
2018-07-22T14:19:05.006Z,26.74
2018-07-22T14:21:34.102Z,26.69
2018-07-22T14:24:03.024Z,26.66
2018-07-22T14:26:31.965Z,26.67
2018-07-22T14:29:01.076Z,26.70
2018-07-22T14:56:39.509Z,26.64
2018-07-22T15:12:55.019Z,26.83
2018-07-22T15:15:24.608Z,26.98
2018-07-22T15:17:53.624Z,27.08
2018-07-22T15:20:24.553Z,27.07
2018-07-22T15:22:53.496Z,27.09
2018-07-22T15:25:22.432Z,27.17
2018-07-22T15:27:51.327Z,27.19
2018-07-22T15:30:20.445Z,27.15
2018-07-22T15:32:49.365Z,27.00
2018-07-22T15:35:21.533Z,26.94
2018-07-22T15:37:50.456Z,26.93
2018-07-22T15:40:19.337Z,26.86
2018-07-22T15:42:48.443Z,26.94
2018-07-22T15:45:17.319Z,27.02
2018-07-22T15:47:46.233Z,26.89
2018-07-22T15:50:15.196Z,26.76
2018-07-22T15:52:44.115Z,26.70
2018-07-22T15:55:13.139Z,26.66
2018-07-22T15:57:41.972Z,26.64
2018-07-22T16:00:10.921Z,26.65
2018-07-22T16:02:43.421Z,26.62
2018-07-22T16:05:12.323Z,26.52
2018-07-22T16:07:41.327Z,26.49
2018-07-22T16:10:10.272Z,26.42
2018-07-22T16:12:39.201Z,26.36
2018-07-22T16:15:08.218Z,26.28
2018-07-22T16:17:37.140Z,26.15
2018-07-22T16:20:06.306Z,26.16
2018-07-22T16:22:35.522Z,26.19
2018-07-22T16:25:04.588Z,26.12
2018-07-22T16:27:33.541Z,26.08
2018-07-22T16:30:02.539Z,26.11
2018-07-22T16:32:32.425Z,26.10
2018-07-22T16:35:02.185Z,26.08
2018-07-22T16:37:31.302Z,26.08
2018-07-22T16:53:38.867Z,25.98
2018-07-22T16:56:16.903Z,25.97
2018-07-22T16:58:45.892Z,25.95
2018-07-22T17:01:15.098Z,25.94
2018-07-22T17:03:43.977Z,25.90
2018-07-22T17:06:12.998Z,25.89
2018-07-22T17:11:19.755Z,25.82
2018-07-22T17:33:26.249Z,25.70
2018-07-22T17:36:00.617Z,25.69
2018-07-22T17:38:29.582Z,25.69
2018-07-22T17:40:58.486Z,25.70
2018-07-22T17:43:27.411Z,25.69
2018-07-22T17:45:56.367Z,25.68
2018-07-22T17:56:43.692Z,25.88
2018-07-22T17:59:12.686Z,25.90
2018-07-22T18:01:41.557Z,25.89
2018-07-22T18:04:10.509Z,25.91
2018-07-22T18:06:39.445Z,25.92
2018-07-22T18:09:08.933Z,25.91
2018-07-22T18:11:38.017Z,25.90
2018-07-22T18:14:07.005Z,25.88
2018-07-22T18:16:36.296Z,25.89
2018-07-22T18:19:05.240Z,25.92
2018-07-22T18:21:34.309Z,25.91
2018-07-22T18:24:03.219Z,25.92
2018-07-22T18:26:32.141Z,26.05
2018-07-22T18:29:01.192Z,25.99
2018-07-22T18:31:30.104Z,26.02
2018-07-22T18:33:59.002Z,26.13
2018-07-22T18:36:27.898Z,26.18
2018-07-22T18:38:56.863Z,26.15
2018-07-22T18:41:25.807Z,26.14
2018-07-22T18:43:54.751Z,26.14
2018-07-22T18:46:23.663Z,26.15
2018-07-22T18:48:56.464Z,26.11
2018-07-22T18:51:25.481Z,26.08
2018-07-22T18:53:54.574Z,26.08
2018-07-22T18:56:23.615Z,26.06
2018-07-22T18:58:52.582Z,26.01
2018-07-22T19:01:21.676Z,25.99
2018-07-22T19:03:50.640Z,25.93
2018-07-22T19:06:19.690Z,25.88
2018-07-22T19:08:48.570Z,25.86
2018-07-22T19:11:21.957Z,25.82
2018-07-22T19:13:50.848Z,25.82
2018-07-22T19:16:19.928Z,25.79
2018-07-22T19:18:49.068Z,25.75
2018-07-22T19:21:17.983Z,25.73
2018-07-22T19:23:46.881Z,25.70
2018-07-22T19:26:15.776Z,25.65
2018-07-22T19:28:44.726Z,25.62
2018-07-22T19:31:13.639Z,25.57
2018-07-22T19:33:42.576Z,25.55
2018-07-22T19:36:11.723Z,25.50
2018-07-22T19:38:40.893Z,25.46
2018-07-22T19:41:10.102Z,25.42
2018-07-22T19:43:39.330Z,25.39
2018-07-22T19:46:08.333Z,25.36
2018-07-22T19:48:37.255Z,25.35
2018-07-22T19:51:06.281Z,25.30
2018-07-22T19:53:35.201Z,25.27
2018-07-22T19:56:04.102Z,25.26
2018-07-22T20:34:15.449Z,24.76
2018-07-22T20:36:44.412Z,24.73
2018-07-22T20:39:13.369Z,24.72
2018-07-22T20:41:42.535Z,24.70
2018-07-22T20:44:11.441Z,24.65
2018-07-22T20:46:40.359Z,24.62
2018-07-22T20:49:09.303Z,24.54
2018-07-22T21:02:45.137Z,24.34
2018-07-22T21:05:14.051Z,24.32
2018-07-22T21:07:42.930Z,24.31
2018-07-22T21:10:11.823Z,24.31
2018-07-22T21:12:53.115Z,24.32
2018-07-22T21:15:22.085Z,24.29
2018-07-22T21:17:51.685Z,24.21
2018-07-22T21:20:21.388Z,24.19
2018-07-22T21:22:50.287Z,24.14
2018-07-22T21:25:19.597Z,24.14
2018-07-22T21:27:48.495Z,24.14
2018-07-22T21:30:17.699Z,24.13
2018-07-22T21:32:46.600Z,24.13
2018-07-22T21:35:15.543Z,24.10
2018-07-22T21:37:44.432Z,24.08
2018-07-22T21:40:13.440Z,24.08
2018-07-22T21:42:42.413Z,24.06
2018-07-22T21:45:11.296Z,24.05
2018-07-22T21:47:40.243Z,24.03
2018-07-22T21:50:09.231Z,23.93
2018-07-22T21:52:38.139Z,23.87
2018-07-22T21:55:07.206Z,23.73
2018-07-22T21:57:36.513Z,23.65
2018-07-22T22:00:16.636Z,23.59
2018-07-22T22:02:45.574Z,23.58
2018-07-22T22:05:14.472Z,23.49
2018-07-22T22:07:43.493Z,23.50
2018-07-22T22:10:12.502Z,23.49
2018-07-22T22:12:41.494Z,23.44
2018-07-22T22:15:15.793Z,23.36
2018-07-22T22:17:44.720Z,23.24
2018-07-22T22:20:13.777Z,23.15
2018-07-22T22:22:42.665Z,23.13
2018-07-22T22:25:11.624Z,23.03
2018-07-22T22:27:40.599Z,22.98
2018-07-22T22:30:11.745Z,22.94
2018-07-22T22:32:41.217Z,22.89
2018-07-22T22:35:10.492Z,22.87
2018-07-22T22:37:40.218Z,22.85
2018-07-22T22:40:09.580Z,22.74
2018-07-22T22:42:38.663Z,22.64
2018-07-22T22:45:07.598Z,22.56
2018-07-22T22:47:36.561Z,22.55
2018-07-22T22:50:05.561Z,22.44
2018-07-22T22:52:34.463Z,22.40
2018-07-22T22:55:04.087Z,22.42
2018-07-22T22:57:33.384Z,22.44
2018-07-22T23:00:02.607Z,22.36
2018-07-22T23:02:34.921Z,22.29
2018-07-22T23:05:04.806Z,22.27
2018-07-22T23:07:34.028Z,22.21
2018-07-22T23:10:03.234Z,22.13
2018-07-22T23:12:32.138Z,22.14
2018-07-22T23:15:01.065Z,22.08
2018-07-22T23:17:29.986Z,22.02
2018-07-22T23:19:58.889Z,22.00
2018-07-22T23:22:27.855Z,21.96
2018-07-22T23:24:57.029Z,21.89
2018-07-22T23:27:25.958Z,21.85
2018-07-22T23:29:54.870Z,21.79
2018-07-22T23:32:23.744Z,21.78
2018-07-22T23:34:52.629Z,21.76
2018-07-22T23:37:21.562Z,21.67
2018-07-22T23:39:50.450Z,21.62
2018-07-22T23:42:19.368Z,21.52
2018-07-22T23:44:48.295Z,21.41
2018-07-22T23:47:17.278Z,21.37
2018-07-22T23:49:46.173Z,21.37
2018-07-22T23:52:15.137Z,21.36
2018-07-22T23:54:44.248Z,21.40
2018-07-22T23:57:13.187Z,21.31
2018-07-22T23:59:42.075Z,21.28
